Nearby METAR Reports

 

RPLL - Ninoy Aquino Int, Philippines
Distance from station: S 15km
Updated: 09/28/2022 8:00pm
Light rain, Overcast
Light rain, Overcast
 Wind from ENE
Wind: ENE 11 km/h
Temperature: 26°C
Dew Point: 24°C
Humidity: 89%
Barometer: 1008 hPa
Summary: Light rain
Clouds: Overcast
Visibility: 8 km
Cloud details: Partly cloudy 701 m
Overcast 2743 m
2022/09/28 12:00 RPLL 281200Z 07006KT 8000 -RA SCT023 OVC090 26/24 Q1008 RETS NOSIG RM KA2977
RPLC - Angeles/Pampanga, Philippines
Distance from station: NW 71km
Updated: 09/28/2022 8:00pm
Mostly cloudy
Mostly cloudy
 Wind from SW
Wind: SW 4 km/h
Temperature: 28°C
Heat Index: 32°C
Dew Point: 24°C
Humidity: 79%
Barometer: 1009 hPa
Clouds: Mostly cloudy
Visibility: 7 km
Cloud details: Partly cloudy 610 m
Mostly cloudy 3048 m
2022/09/28 12:00 RPLC 281200Z 23002KT 7000 SCT020 BKN100 28/24 Q1009 NOSIG RMK A2980
 
RPLB - Olongapo/Subic, Philippines
Distance from station: WNW 78km
Updated: 09/28/2022 8:00pm
Partly cloudy
Partly cloudy
 Wind from SSE
Wind: SSE 7 km/h
Temperature: 27°C
Heat Index: 31°C
Dew Point: 24°C
Humidity: 84%
Barometer: 1009 hPa
Clouds: Partly cloudy
Visibility: 10 km
Cloud details: Few Clouds 549 m
Few Clouds 610 m
Partly cloudy 2438 m
2022/09/28 12:00 RPLB 281200Z 15004KT 9999 FEW018CB FEW020 SCT080 27/24 Q1009 NOSIG RMK A2980 VCSH LTG N
RPMR - Romblon/Tablas I, Philippines
Distance from station: SSE 270km
Updated: 09/28/2022 5:00pm
NOT Current
Light rain, Showers, Overcast
Light rain, Showers, Overcast
 Wind from N
Wind: N 9 km/h
Temperature: 25°C
Dew Point: 23°C
Humidity: 89%
Barometer: 1009 hPa
Summary: Light rain, Showers
Clouds: Overcast
Visibility: 8 km
Cloud details: Partly cloudy 549 m
Overcast 2438 m
2022/09/28 09:00 RPMR 280900Z 35005KT 8000 -SHRA SCT018 OVC080 25/23 Q1009 RMK A2980
 
RPVK - Kalibo/Panay Isl, Philippines
Distance from station: SSE 364km
Updated: 09/23/2022 6:00pm
NOT Current
Rain, Overcast
Rain, Overcast
 Wind from SSW
Wind: SSW 6 km/h
Temperature: 24°C
Dew Point: 23°C
Humidity: 94%
Barometer: 1008 hPa
Summary: Rain
Clouds: Overcast
Visibility: 5 km
Cloud details: Few Clouds 396 m
Overcast 2134 m
2022/09/23 10:00 RPVK 231000Z 21003KT 5000 RA FEW013CB OVC070 24/23 Q1008 RMK A2977 CB N SE
RPLI - Laoag Intl(Ph-Ar, Philippines
Distance from station: N 394km
Updated: 09/28/2022 8:00pm
Partly cloudy
Partly cloudy
 Wind from SE
Wind: SE 9 km/h
Temperature: 28°C
Heat Index: 33°C
Dew Point: 26°C
Humidity: 89%
Barometer: 1008 hPa
Clouds: Partly cloudy
Visibility: 10 km
Cloud details: Few Clouds 518 m
Few Clouds 549 m
Partly cloudy 3048 m
2022/09/28 12:00 RPLI 281200Z 14005KT 110V170 9999 FEW017CB FEW018 SCT100 28/26 Q1008 RETS NOSIG RMK A2977 CB SE SW
 
RPVM - Mactan-Cebu, Philippines
Distance from station: SE 582km
Updated: 09/28/2022 8:00pm
Mostly cloudy
Mostly cloudy
 Wind from calm
Wind: Calm
Temperature: 26°C
Dew Point: 24°C
Humidity: 89%
Barometer: 1010 hPa
Clouds: Mostly cloudy
Visibility: 10 km
Cloud details: Few Clouds 610 m
Mostly cloudy 7620 m
2022/09/28 12:00 RPVM 281200Z 00000KT 9999 FEW020 BKN250 26/24 Q1010 RMK A2983
RPVP - Puerto Princesa, Philippines
Distance from station: SSW 598km
Updated: 09/28/2022 8:00pm
Mostly cloudy
Mostly cloudy
 Wind from S
Wind: S 7 km/h
Temperature: 28°C
Heat Index: 32°C
Dew Point: 25°C
Humidity: 84%
Barometer: 1009 hPa
Clouds: Mostly cloudy
Visibility: 10 km
Cloud details: Few Clouds 579 m
Mostly cloudy 7315 m
2022/09/28 12:00 RPVP 281200Z 18004KT 9999 FEW019 BKN240 28/25 Q1009 RMK A2980
 
RPVD - Dumaguete/Negros, Philippines
Distance from station: SSE 643km
Updated: 09/28/2022 8:00pm
Mostly cloudy
Mostly cloudy
 Wind from WSW
Wind: WSW 7 km/h
Temperature: 27°C
Heat Index: 31°C
Dew Point: 24°C
Humidity: 84%
Barometer: 1009 hPa
Clouds: Mostly cloudy
Visibility: 10 km
Cloud details: Few Clouds 457 m
Mostly cloudy 2134 m
2022/09/28 12:00 RPVD 281200Z 25004KT 9999 FEW015 BKN070 27/24 Q1009 RMK A2980
RPMZ - Zamboanga (civ/A, Philippines
Distance from station: S 868km
Updated: 09/28/2022 8:00pm
Light rain, Showers, Overcast
Light rain, Showers, Overcast
 Wind from E
Wind: E 11 km/h
Temperature: 26°C
Dew Point: 24°C
Humidity: 89%
Barometer: 1009 hPa
Summary: Light rain, Showers
Clouds: Overcast
Visibility: 9 km
Cloud details: Partly cloudy 488 m
Overcast 2743 m
2022/09/28 12:00 RPMZ 281200Z 08006KT 9000 -SHRA SCT016CB OVC090 26/24 Q1009 RMK A2980 CB E OHD
 
RPMD - Davao/Francisco, Philippines
Distance from station: SSE 980km
Updated: 09/28/2022 8:00pm
Light rain, Overcast
Light rain, Overcast
 Wind from varies
Wind: varies 4 km/h
Temperature: 24°C
Dew Point: 24°C
Humidity: 100%
Barometer: 1011 hPa
Summary: Light rain
Clouds: Overcast
Visibility: 8 km
Cloud details: Few Clouds 457 m
Few Clouds 488 m
Overcast 2438 m
2022/09/28 12:00 RPMD 281200Z VRB02KT 8000 -RA FEW015CB FEW016 OVC080 24/24 Q1011 RMK A2985 CB WSW W/ OCNL LTG